Time;durP1;ratioP1;P1;durP2;ratioP2;P2;SDS_P1;SDS_P2;PMS_P1;PMS_P2;Temp;Humidity;BMP_temperature;BMP_pressure;BME280_temperature;BME280_humidity;BME280_pressure;Samples;Min_cycle;Max_cycle;Signal;HPM_P1;HPM_P2
2024/04/12 00:01:16;;;;;;;8.27;3.33;;;14.50;74.10;;;;;;4509430;26;20470;-75
2024/04/12 00:03:17;;;;;;;9.43;2.90;;;14.40;74.00;;;;;;4507832;26;20003;-73
2024/04/12 00:05:20;;;;;;;8.73;3.40;;;14.40;74.30;;;;;;4509759;26;19999;-75
2024/04/12 00:07:22;;;;;;;8.90;3.65;;;14.40;74.00;;;;;;4509600;26;20101;-76
2024/04/12 00:09:23;;;;;;;12.63;3.67;;;14.40;73.90;;;;;;4509798;26;19999;-74
2024/04/12 00:11:23;;;;;;;7.35;3.30;;;14.40;73.70;;;;;;4509741;26;20003;-76
2024/04/12 00:13:26;;;;;;;7.28;2.75;;;14.40;73.60;;;;;;4509636;26;20349;-77
2024/04/12 00:15:29;;;;;;;6.47;2.60;;;14.40;73.50;;;;;;4507851;26;20463;-75
2024/04/12 00:17:31;;;;;;;6.82;2.83;;;14.40;73.40;;;;;;4509582;26;20034;-74
2024/04/12 00:19:33;;;;;;;14.80;4.47;;;14.40;73.50;;;;;;4507439;26;19999;-73
2024/04/12 00:21:41;;;;;;;19.98;3.92;;;14.40;73.40;;;;;;4509626;26;20036;-74
2024/04/12 00:23:41;;;;;;;5.22;3.58;;;14.40;73.60;;;;;;4507510;26;20397;-74
2024/04/12 00:25:42;;;;;;;7.38;3.13;;;14.20;73.90;;;;;;4509396;26;20014;-73
2024/04/12 00:27:43;;;;;;;11.27;3.55;;;14.20;73.80;;;;;;4509280;26;20432;-74
2024/04/12 00:29:46;;;;;;;8.43;3.00;;;14.20;73.80;;;;;;4509744;26;20063;-74
2024/04/12 00:31:46;;;;;;;;;;;14.20;74.00;;;;;;4509547;26;20076;-73
2024/04/12 00:33:48;;;;;;;11.75;3.70;;;14.20;73.90;;;;;;4507479;26;19936;-74
2024/04/12 00:35:54;;;;;;;;;;;14.20;73.70;;;;;;4510137;26;20773;-74
2024/04/12 00:38:00;;;;;;;13.75;3.90;;;14.20;73.70;;;;;;4507204;26;19924;-74
2024/04/12 00:40:00;;;;;;;14.57;3.03;;;14.20;73.60;;;;;;4509138;26;19998;-77
2024/04/12 00:42:07;;;;;;;5.75;2.50;;;14.20;73.70;;;;;;4508955;26;19999;-75
2024/04/12 00:44:08;;;;;;;8.38;2.70;;;14.10;73.70;;;;;;4509270;26;19998;-75
2024/04/12 00:46:09;;;;;;;9.05;3.70;;;14.10;73.90;;;;;;4509333;26;20014;-75
2024/04/12 00:48:10;;;;;;;8.25;3.55;;;14.00;73.90;;;;;;4509127;26;20034;-76
2024/04/12 00:50:11;;;;;;;9.75;3.03;;;14.00;73.80;;;;;;4508885;26;20002;-75
2024/04/12 00:52:27;;;;;;;13.23;4.10;;;14.10;73.80;;;;;;4507434;26;20365;-73
2024/04/12 00:54:32;;;;;;;7.00;3.90;;;14.00;73.80;;;;;;4507228;26;20556;-74
2024/04/12 00:56:34;;;;;;;8.75;2.67;;;14.10;73.90;;;;;;4509195;26;20463;-76
2024/04/12 00:58:37;;;;;;;13.88;3.60;;;14.10;73.90;;;;;;4509028;26;20002;-74
2024/04/12 01:00:46;;;;;;;8.25;3.85;;;14.00;74.00;;;;;;4506949;26;19995;-74
2024/04/12 01:02:48;;;;;;;12.50;3.15;;;14.00;74.00;;;;;;4509007;26;19998;-72
2024/04/12 01:04:50;;;;;;;9.07;4.85;;;13.90;74.00;;;;;;4482392;26;20051;-74
2024/04/12 01:06:50;;;;;;;9.33;3.50;;;13.90;74.00;;;;;;4507161;26;19998;-75
2024/04/12 01:08:54;;;;;;;10.38;3.35;;;14.00;74.00;;;;;;4506913;26;20812;-74
2024/04/12 01:10:56;;;;;;;6.80;3.15;;;14.00;74.00;;;;;;4506485;26;20025;-75
2024/04/12 01:13:01;;;;;;;7.75;3.13;;;14.00;74.00;;;;;;4508903;26;19998;-74
2024/04/12 01:15:02;;;;;;;11.82;3.78;;;14.00;73.80;;;;;;4507049;26;20011;-73
2024/04/12 01:17:02;;;;;;;10.60;2.72;;;14.00;73.90;;;;;;4507642;26;20067;-73
2024/04/12 01:19:03;;;;;;;5.55;2.90;;;13.90;74.00;;;;;;4506248;26;20093;-74
2024/04/12 01:21:10;;;;;;;10.82;3.45;;;13.80;74.10;;;;;;4508337;26;20003;-72
2024/04/12 01:23:15;;;;;;;8.27;2.80;;;13.70;74.20;;;;;;4508764;26;20066;-72
2024/04/12 01:25:17;;;;;;;10.68;2.70;;;13.70;74.10;;;;;;4506881;26;20072;-74
2024/04/12 01:27:18;;;;;;;7.78;2.53;;;13.70;74.30;;;;;;4508693;26;20009;-73
2024/04/12 01:29:19;;;;;;;9.82;3.08;;;13.70;74.20;;;;;;4508789;26;19999;-74
2024/04/12 01:31:19;;;;;;;10.27;3.55;;;13.60;74.40;;;;;;4507871;26;20067;-74
2024/04/12 01:33:20;;;;;;;8.60;3.38;;;13.60;74.30;;;;;;4508457;26;19995;-73
2024/04/12 01:35:21;;;;;;;14.00;4.95;;;13.60;74.40;;;;;;4508259;26;19995;-73
2024/04/12 01:37:22;;;;;;;10.60;3.83;;;13.60;74.40;;;;;;4508257;26;20972;-76
2024/04/12 01:39:22;;;;;;;10.50;3.13;;;13.50;74.40;;;;;;4505948;26;20048;-72
2024/04/12 01:41:24;;;;;;;9.02;2.95;;;13.50;74.50;;;;;;4506423;26;19999;-73
2024/04/12 01:43:26;;;;;;;6.83;2.57;;;13.50;74.60;;;;;;4508544;26;19999;-73
2024/04/12 01:45:27;;;;;;;12.10;3.97;;;13.50;74.50;;;;;;4508329;26;20003;-73
2024/04/12 01:47:34;;;;;;;12.43;4.10;;;13.40;74.80;;;;;;4508561;26;20038;-74
2024/04/12 01:49:43;;;;;;;9.07;4.50;;;13.30;75.00;;;;;;4484657;26;20393;-72
2024/04/12 01:51:47;;;;;;;14.60;3.50;;;13.30;75.10;;;;;;4508269;26;19999;-74
2024/04/12 01:53:54;;;;;;;16.33;4.18;;;13.20;75.20;;;;;;4508917;26;20320;-73
2024/04/12 01:55:58;;;;;;;12.95;3.50;;;13.20;75.20;;;;;;4508562;26;20032;-73
2024/04/12 01:58:00;;;;;;;13.23;3.72;;;13.20;75.20;;;;;;4482944;26;19996;-73
2024/04/12 02:00:02;;;;;;;11.27;3.38;;;13.20;75.10;;;;;;4506056;26;19991;-72
2024/04/12 02:02:04;;;;;;;9.27;4.35;;;13.30;75.20;;;;;;4507953;26;20309;-71
2024/04/12 02:04:07;;;;;;;7.95;2.97;;;13.20;75.30;;;;;;4507935;26;19998;-73
2024/04/12 02:06:08;;;;;;;8.43;3.10;;;13.30;75.20;;;;;;4507954;26;20038;-76
2024/04/12 02:08:16;;;;;;;7.75;3.15;;;13.30;75.10;;;;;;4506089;26;20500;-74
2024/04/12 02:10:22;;;;;;;10.57;2.97;;;13.40;75.00;;;;;;4507710;26;20823;-74
2024/04/12 02:12:23;;;;;;;11.20;2.92;;;13.40;75.00;;;;;;4507908;26;20034;-74
2024/04/12 02:14:23;;;;;;;7.25;2.97;;;13.40;74.90;;;;;;4508042;26;20437;-72
2024/04/12 02:16:24;;;;;;;14.13;3.25;;;13.40;74.80;;;;;;4507790;26;20021;-73
2024/04/12 02:18:32;;;;;;;9.88;3.35;;;13.40;74.90;;;;;;4505639;26;19995;-75
2024/04/12 02:20:36;;;;;;;15.65;3.85;;;13.30;75.00;;;;;;4507554;26;20003;-73
2024/04/12 02:22:37;;;;;;;9.93;3.33;;;13.30;75.10;;;;;;4505932;26;20014;-73
2024/04/12 02:24:40;;;;;;;8.98;3.28;;;13.30;75.10;;;;;;4507775;26;20027;-73
2024/04/12 02:26:42;;;;;;;10.68;2.83;;;13.30;75.10;;;;;;4508119;26;20328;-73
2024/04/12 02:28:43;;;;;;;15.68;4.07;;;13.30;75.00;;;;;;4507949;26;20022;-73
2024/04/12 02:30:45;;;;;;;9.73;2.47;;;13.40;74.90;;;;;;4505301;26;20448;-73
2024/04/12 02:32:47;;;;;;;10.45;3.05;;;13.40;74.90;;;;;;4507838;26;19995;-73
2024/04/12 02:34:48;;;;;;;9.30;3.83;;;13.50;74.90;;;;;;4505764;26;20018;-73
2024/04/12 02:36:49;;;;;;;12.00;3.13;;;13.50;74.90;;;;;;4505814;26;20061;-73
2024/04/12 02:38:50;;;;;;;10.57;2.83;;;13.40;75.00;;;;;;4505791;26;20003;-75
2024/04/12 02:40:50;;;;;;;9.35;3.10;;;13.40;75.00;;;;;;4505449;26;19995;-73
2024/04/12 02:42:51;;;;;;;15.65;4.05;;;13.40;75.00;;;;;;4504983;26;20043;-74
2024/04/12 02:44:51;;;;;;;10.95;3.92;;;13.40;75.00;;;;;;4505530;26;20007;-74
2024/04/12 02:46:53;;;;;;;13.57;3.58;;;13.40;75.10;;;;;;4506157;26;20453;-72
2024/04/12 02:48:54;;;;;;;9.57;3.33;;;13.30;75.10;;;;;;4507062;26;20007;-73
2024/04/12 02:51:03;;;;;;;16.35;3.47;;;13.30;75.10;;;;;;4505239;26;20014;-74
2024/04/12 02:53:03;;;;;;;11.80;3.65;;;13.30;75.10;;;;;;4510752;26;19995;-74
2024/04/12 02:55:13;;;;;;;13.57;3.70;;;13.30;75.10;;;;;;4508768;26;20399;-74
2024/04/12 02:57:14;;;;;;;7.20;2.72;;;13.30;75.20;;;;;;4510791;26;20013;-73
2024/04/12 02:59:14;;;;;;;11.80;3.20;;;13.20;75.30;;;;;;4510432;26;20082;-73
2024/04/12 03:01:17;;;;;;;11.73;2.88;;;13.20;75.20;;;;;;4509955;26;19999;-72
2024/04/12 03:03:18;;;;;;;9.90;3.58;;;13.20;75.20;;;;;;4510116;26;20231;-74
2024/04/12 03:05:25;;;;;;;6.70;2.70;;;13.20;75.10;;;;;;4508364;26;20044;-74
2024/04/12 03:07:26;;;;;;;9.32;3.53;;;13.20;75.20;;;;;;4510480;26;20010;-74
2024/04/12 03:09:27;;;;;;;8.98;2.88;;;13.10;75.30;;;;;;4510433;26;20027;-73
2024/04/12 03:11:33;;;;;;;7.55;2.60;;;13.00;75.50;;;;;;4508166;26;20460;-75
2024/04/12 03:13:36;;;;;;;10.60;3.50;;;13.00;75.40;;;;;;4508621;26;20460;-75
2024/04/12 03:15:37;;;;;;;9.45;2.60;;;13.00;75.50;;;;;;4508586;26;19998;-73
2024/04/12 03:17:38;;;;;;;8.43;2.53;;;13.00;75.60;;;;;;4508521;26;20010;-75
2024/04/12 03:19:38;;;;;;;8.30;3.33;;;13.00;75.60;;;;;;4509954;26;20023;-73
2024/04/12 03:21:42;;;;;;;8.02;3.20;;;13.10;75.70;;;;;;4509730;26;20011;-74
2024/04/12 03:23:44;;;;;;;14.05;3.35;;;13.00;75.70;;;;;;4508452;26;19999;-74
2024/04/12 03:25:45;;;;;;;9.40;3.65;;;13.00;75.70;;;;;;4510308;26;20424;-74
2024/04/12 03:27:45;;;;;;;12.15;3.35;;;13.00;75.70;;;;;;4509991;26;20034;-73
2024/04/12 03:29:49;;;;;;;10.10;2.88;;;13.10;75.60;;;;;;4510008;26;20069;-72
2024/04/12 03:31:50;;;;;;;13.20;4.10;;;13.10;75.70;;;;;;4509892;26;20060;-71
2024/04/12 03:33:54;;;;;;;15.77;3.55;;;13.10;75.70;;;;;;4510028;26;20013;-73
2024/04/12 03:35:54;;;;;;;14.35;3.38;;;13.10;75.60;;;;;;4508336;26;20003;-74
2024/04/12 03:40:17;;;;;;;13.70;4.53;;;13.10;75.60;;;;;;4509379;26;20018;-73
2024/04/12 03:42:18;;;;;;;13.68;3.65;;;13.10;75.70;;;;;;4507924;26;20014;-73
2024/04/12 03:44:19;;;;;;;11.60;3.45;;;13.00;75.80;;;;;;4509881;26;20022;-72
2024/04/12 03:46:25;;;;;;;7.60;3.67;;;13.00;75.80;;;;;;4509904;26;20429;-72
2024/04/12 03:48:30;;;;;;;12.38;3.90;;;12.90;76.00;;;;;;4509971;26;20009;-73
2024/04/12 03:50:31;;;;;;;14.00;4.18;;;12.90;76.10;;;;;;4509168;26;20005;-73
2024/04/12 03:52:32;;;;;;;13.70;3.90;;;12.90;76.20;;;;;;4509988;26;19991;-73
2024/04/12 03:54:34;;;;;;;14.02;4.28;;;12.90;76.20;;;;;;4508093;26;19999;-74
2024/04/12 03:56:36;;;;;;;11.10;3.80;;;12.90;76.40;;;;;;4509970;26;20068;-74
2024/04/12 03:58:37;;;;;;;9.98;3.78;;;12.90;76.40;;;;;;4509620;26;20007;-73
2024/04/12 04:00:38;;;;;;;15.63;4.80;;;12.90;76.40;;;;;;4509283;26;20057;-72
2024/04/12 04:02:39;;;;;;;9.57;4.63;;;12.90;76.50;;;;;;4509156;26;20002;-74
2024/04/12 04:04:44;;;;;;;8.98;4.32;;;12.90;76.50;;;;;;4509568;26;19999;-73
2024/04/12 04:06:54;;;;;;;11.82;4.28;;;12.90;76.70;;;;;;4507688;26;20013;-74
2024/04/12 04:08:55;;;;;;;11.07;4.13;;;12.80;77.10;;;;;;4510327;26;20125;-73
2024/04/12 04:10:55;;;;;;;9.80;3.95;;;12.80;77.20;;;;;;4507398;26;19995;-73
2024/04/12 04:12:56;;;;;;;10.40;4.38;;;12.80;77.00;;;;;;4508029;26;20511;-74
2024/04/12 04:14:57;;;;;;;18.83;4.97;;;12.80;77.20;;;;;;4509549;26;19998;-75
2024/04/12 04:17:00;;;;;;;17.70;5.95;;;12.80;77.20;;;;;;4509710;26;19999;-74
2024/04/12 04:19:02;;;;;;;16.38;4.70;;;12.70;77.20;;;;;;4509116;26;20006;-70
2024/04/12 04:21:07;;;;;;;13.40;4.22;;;12.70;77.40;;;;;;4509310;26;20403;-72
2024/04/12 04:23:07;;;;;;;14.68;5.47;;;12.70;77.50;;;;;;4509546;26;20333;-71
2024/04/12 04:25:13;;;;;;;13.68;3.95;;;12.70;77.50;;;;;;4507598;26;19999;-72
2024/04/12 04:27:15;;;;;;;15.77;4.50;;;12.70;77.40;;;;;;4509152;26;19998;-73
2024/04/12 04:29:16;;;;;;;9.85;3.80;;;12.80;77.40;;;;;;4509613;26;20013;-73
2024/04/12 04:31:18;;;;;;;10.85;4.60;;;12.80;77.20;;;;;;4506989;26;20034;-73
2024/04/12 04:33:21;;;;;;;13.45;4.90;;;12.80;77.20;;;;;;4509288;26;20029;-72
2024/04/12 04:35:27;;;;;;;9.05;3.47;;;12.80;77.30;;;;;;4509177;26;20002;-74
2024/04/12 04:37:27;;;;;;;7.53;3.65;;;12.80;77.40;;;;;;4507384;26;19995;-74
2024/04/12 04:39:29;;;;;;;11.85;3.45;;;12.80;77.20;;;;;;4509281;26;20067;-72
2024/04/12 04:41:30;;;;;;;11.25;4.53;;;12.80;77.20;;;;;;4508955;26;20013;-73
2024/04/12 04:43:32;;;;;;;8.30;3.30;;;12.90;77.20;;;;;;4507624;26;20831;-73
2024/04/12 04:45:33;;;;;;;9.38;3.70;;;12.90;77.20;;;;;;4509578;26;20013;-78
2024/04/12 04:47:40;;;;;;;13.75;3.55;;;12.90;76.90;;;;;;4509237;26;20003;-76
2024/04/12 04:49:40;;;;;;;12.90;3.78;;;12.90;76.80;;;;;;4509014;26;19999;-75
2024/04/12 04:51:41;;;;;;;11.38;4.25;;;12.90;76.80;;;;;;4509437;26;20448;-75
2024/04/12 04:53:43;;;;;;;8.18;3.35;;;12.90;77.00;;;;;;4509338;26;20006;-75
2024/04/12 04:55:44;;;;;;;9.13;3.38;;;12.90;76.90;;;;;;4509266;26;20038;-74
2024/04/12 04:57:47;;;;;;;12.00;3.90;;;12.90;76.90;;;;;;4509308;26;19995;-77
2024/04/12 04:59:48;;;;;;;12.57;4.07;;;12.90;77.00;;;;;;4508682;26;20751;-76
2024/04/12 05:01:49;;;;;;;10.20;4.40;;;12.90;77.10;;;;;;4509002;26;20009;-75
2024/04/12 05:03:50;;;;;;;9.50;3.80;;;12.90;77.20;;;;;;4508953;26;20710;-75
2024/04/12 05:05:50;;;;;;;9.77;4.32;;;12.90;77.10;;;;;;4508917;26;20067;-75
2024/04/12 05:07:58;;;;;;;11.27;3.70;;;12.90;77.10;;;;;;4508740;26;20487;-73
2024/04/12 05:10:08;;;;;;;9.45;3.22;;;12.90;77.00;;;;;;4484869;26;20014;-75
2024/04/12 05:12:09;;;;;;;15.40;4.75;;;12.90;77.00;;;;;;4508790;26;20039;-73
2024/04/12 05:14:44;;;;;;;6.55;3.00;;;12.90;77.20;;;;;;4505777;26;20014;-73
2024/04/12 05:16:36;;;;;;;11.55;4.30;;;12.90;77.20;;;;;;4508311;26;20492;-72
2024/04/12 05:18:37;;;;;;;12.63;4.10;;;12.90;77.30;;;;;;4508518;26;20044;-72
2024/04/12 05:20:43;;;;;;;9.93;3.53;;;12.90;77.20;;;;;;4508155;26;20039;-72
2024/04/12 05:22:43;;;;;;;12.02;3.75;;;12.90;77.30;;;;;;4508722;26;20021;-73
2024/04/12 05:24:44;;;;;;;9.68;4.25;;;12.80;77.50;;;;;;4508311;26;20015;-73
2024/04/12 05:26:45;;;;;;;9.05;3.92;;;12.70;77.50;;;;;;4506318;26;19998;-74
2024/04/12 05:28:47;;;;;;;9.25;3.50;;;12.80;77.50;;;;;;4508344;26;20030;-75
2024/04/12 05:30:49;;;;;;;14.57;4.20;;;12.80;77.50;;;;;;4507861;26;20009;-76
2024/04/12 05:32:50;;;;;;;12.65;5.35;;;12.80;77.40;;;;;;4508428;26;19999;-75
2024/04/12 05:34:51;;;;;;;7.97;3.78;;;12.90;77.40;;;;;;4506348;26;20341;-76
2024/04/12 05:36:55;;;;;;;7.40;3.25;;;12.90;77.40;;;;;;4495826;26;20009;-75
2024/04/12 05:39:08;;;;;;;8.40;3.47;;;13.00;77.30;;;;;;4493586;26;20031;-74
2024/04/12 05:41:09;;;;;;;10.43;3.85;;;13.00;77.30;;;;;;4507857;26;19999;-75
2024/04/12 05:43:13;;;;;;;14.35;4.78;;;13.00;77.30;;;;;;4508049;26;20463;-74
2024/04/12 05:45:19;;;;;;;13.85;4.70;;;13.10;77.30;;;;;;4508433;26;20026;-72
2024/04/12 05:47:21;;;;;;;9.15;4.13;;;13.10;77.30;;;;;;4505865;26;20010;-73
2024/04/12 05:49:22;;;;;;;9.50;3.67;;;13.20;77.30;;;;;;4506605;26;20631;-74
2024/04/12 05:51:22;;;;;;;11.55;4.20;;;13.20;77.30;;;;;;4507619;26;20003;-75
2024/04/12 05:53:26;;;;;;;13.68;8.35;;;13.30;77.30;;;;;;4507670;26;19999;-74
2024/04/12 05:55:29;;;;;;;21.08;14.77;;;13.40;77.30;;;;;;4508257;26;19995;-75
2024/04/12 05:57:32;;;;;;;11.45;4.05;;;13.40;77.20;;;;;;4508198;26;20010;-74
2024/04/12 05:59:34;;;;;;;7.97;4.25;;;13.30;77.20;;;;;;4507653;26;20007;-72
2024/04/12 06:01:34;;;;;;;10.00;4.15;;;13.30;77.10;;;;;;4507646;26;20018;-72
2024/04/12 06:03:42;;;;;;;8.15;4.05;;;13.20;77.10;;;;;;4507990;26;20046;-72
2024/04/12 06:05:57;;;;;;;12.90;5.97;;;13.20;77.20;;;;;;4507711;26;20003;-74
2024/04/12 06:07:58;;;;;;;14.00;4.55;;;13.20;77.30;;;;;;4506251;26;20002;-74
2024/04/12 06:10:01;;;;;;;9.10;3.65;;;13.20;77.30;;;;;;4505786;26;20077;-73
2024/04/12 06:12:05;;;;;;;14.57;4.00;;;13.30;77.30;;;;;;4507924;26;20029;-74
2024/04/12 06:14:06;;;;;;;16.65;5.15;;;13.40;77.40;;;;;;4506055;26;19998;-73
2024/04/12 06:16:07;;;;;;;15.57;5.47;;;13.40;77.40;;;;;;4507908;26;20013;-74
2024/04/12 06:18:10;;;;;;;16.00;4.80;;;13.40;77.30;;;;;;4506124;26;20427;-74
2024/04/12 06:20:11;;;;;;;10.90;4.13;;;13.40;77.30;;;;;;4507255;26;19995;-74
2024/04/12 06:22:15;;;;;;;12.68;4.40;;;13.40;77.30;;;;;;4507898;26;20314;-73
2024/04/12 06:24:17;;;;;;;10.52;4.30;;;13.40;77.30;;;;;;4505831;26;20006;-75
2024/04/12 06:26:22;;;;;;;8.85;3.47;;;13.40;77.30;;;;;;4507860;26;20104;-74
2024/04/12 06:28:23;;;;;;;10.27;4.70;;;13.40;77.20;;;;;;4510750;26;20105;-74
2024/04/12 06:30:24;;;;;;;8.80;3.88;;;13.40;77.10;;;;;;4509908;26;20018;-73
2024/04/12 06:32:26;;;;;;;19.53;5.53;;;13.40;76.90;;;;;;4503477;26;20105;-73
2024/04/12 06:34:28;;;;;;;8.85;3.92;;;13.50;77.00;;;;;;4508845;26;20013;-76
2024/04/12 06:36:33;;;;;;;7.75;5.40;;;13.40;77.10;;;;;;4510244;26;19999;-76
2024/04/12 06:38:35;;;;;;;14.35;4.45;;;13.50;77.10;;;;;;4489028;26;19992;-76
2024/04/12 06:40:37;;;;;;;12.95;4.20;;;13.50;77.10;;;;;;4504489;26;20436;-76
2024/04/12 06:42:41;;;;;;;14.20;5.68;;;13.50;77.10;;;;;;4510647;26;20032;-74
2024/04/12 06:44:54;;;;;;;15.18;4.38;;;13.50;77.00;;;;;;4510672;26;20002;-74
2024/04/12 06:46:58;;;;;;;10.48;4.18;;;13.50;76.90;;;;;;4510536;26;20467;-74
2024/04/12 06:49:14;;;;;;;20.02;4.68;;;13.50;77.00;;;;;;4510737;26;20013;-74
2024/04/12 06:51:16;;;;;;;6.80;3.58;;;13.50;77.20;;;;;;4486140;26;20529;-73
2024/04/12 06:53:19;;;;;;;11.65;5.13;;;13.70;77.30;;;;;;4510752;26;20003;-73
2024/04/12 06:55:22;;;;;;;24.58;13.23;;;13.70;77.20;;;;;;4510570;26;19995;-74
2024/04/12 06:57:25;;;;;;;38.45;25.92;;;13.80;77.20;;;;;;4510597;26;20080;-74
2024/04/12 06:59:35;;;;;;;23.17;14.52;;;13.90;77.20;;;;;;4510205;26;20003;-72
2024/04/12 07:01:35;;;;;;;21.38;11.98;;;13.90;77.20;;;;;;4510469;26;20422;-74
2024/04/12 07:03:37;;;;;;;13.32;8.27;;;14.00;77.10;;;;;;4508676;26;20010;-74
2024/04/12 07:05:39;;;;;;;9.98;6.05;;;14.00;77.10;;;;;;4510290;26;19995;-74
2024/04/12 07:07:40;;;;;;;6.78;4.20;;;14.10;77.10;;;;;;4510410;26;19995;-76
2024/04/12 07:09:45;;;;;;;10.35;4.07;;;14.10;77.00;;;;;;4510089;26;19999;-77
2024/04/12 07:11:46;;;;;;;14.13;4.88;;;14.10;76.80;;;;;;4508049;26;20049;-77
2024/04/12 07:13:49;;;;;;;10.52;4.93;;;14.10;76.60;;;;;;4507867;26;19999;-78
2024/04/12 07:15:50;;;;;;;8.88;3.72;;;14.10;76.50;;;;;;4507839;26;20098;-78
2024/04/12 07:17:51;;;;;;;9.57;4.28;;;14.20;76.60;;;;;;4509903;26;20045;-78
2024/04/12 07:19:54;;;;;;;9.63;3.90;;;14.30;76.70;;;;;;4509231;26;20397;-78
2024/04/12 07:21:54;;;;;;;11.43;4.15;;;14.30;76.50;;;;;;4509063;26;20391;-76
2024/04/12 07:23:55;;;;;;;10.68;3.88;;;14.30;76.40;;;;;;4509438;26;20043;-76
2024/04/12 07:25:56;;;;;;;11.63;4.50;;;14.40;76.50;;;;;;4509778;26;19995;-76
2024/04/12 07:27:57;;;;;;;8.55;3.97;;;14.40;76.50;;;;;;4507639;26;20046;-76
2024/04/12 07:29:57;;;;;;;12.07;4.15;;;14.40;76.30;;;;;;4496854;26;20071;-74
2024/04/12 07:31:58;;;;;;;7.78;4.13;;;14.50;76.30;;;;;;4506420;26;19995;-74
2024/04/12 07:33:59;;;;;;;13.30;4.20;;;14.60;76.40;;;;;;4509677;26;20043;-76
2024/04/12 07:36:00;;;;;;;7.93;2.95;;;14.80;76.60;;;;;;4507718;26;20044;-77
2024/04/12 07:38:00;;;;;;;8.80;3.80;;;14.80;76.50;;;;;;4508599;26;19999;-74
2024/04/12 07:40:20;;;;;;;11.30;4.93;;;14.90;76.40;;;;;;4509101;26;19995;-74
2024/04/12 07:42:22;;;;;;;23.05;11.23;;;14.90;76.00;;;;;;4502530;26;20011;-77
2024/04/12 07:44:24;;;;;;;15.00;7.75;;;15.00;75.80;;;;;;4484513;26;20007;-76
2024/04/12 07:46:33;;;;;;;10.70;5.28;;;15.00;75.60;;;;;;4509452;26;20013;-77
2024/04/12 07:48:36;;;;;;;8.93;4.40;;;15.00;75.50;;;;;;4509161;26;20006;-75
2024/04/12 07:50:39;;;;;;;10.38;4.28;;;15.00;75.70;;;;;;4508658;26;20005;-76
2024/04/12 07:52:39;;;;;;;16.08;4.80;;;15.10;75.50;;;;;;4509085;26;20010;-74
2024/04/12 07:54:40;;;;;;;8.70;4.15;;;15.20;75.70;;;;;;4509524;26;20042;-75
2024/04/12 07:56:45;;;;;;;9.45;3.97;;;15.20;75.60;;;;;;4507490;26;20039;-76
2024/04/12 07:59:01;;;;;;;8.52;4.35;;;15.40;75.70;;;;;;4509664;26;20451;-76
2024/04/12 08:01:15;;;;;;;15.43;4.57;;;15.50;75.50;;;;;;4502456;26;20007;-75
2024/04/12 08:03:16;;;;;;;9.63;4.30;;;15.50;75.60;;;;;;4492638;26;19998;-73
2024/04/12 08:05:24;;;;;;;6.53;3.88;;;15.50;75.40;;;;;;4509325;26;19998;-75
2024/04/12 08:07:29;;;;;;;10.02;4.53;;;15.60;75.30;;;;;;4507858;26;20100;-75
2024/04/12 08:09:40;;;;;;;7.40;4.22;;;15.70;75.20;;;;;;4507502;26;20006;-74
2024/04/12 08:11:41;;;;;;;20.58;11.18;;;15.80;75.00;;;;;;4485837;26;20101;-76
2024/04/12 08:13:44;;;;;;;25.50;14.13;;;15.90;75.20;;;;;;4509680;26;20006;-75
2024/04/12 08:15:49;;;;;;;14.75;6.97;;;16.00;75.10;;;;;;4505588;26;19995;-76
2024/04/12 08:17:49;;;;;;;13.70;4.75;;;16.10;75.10;;;;;;4509505;26;20010;-76
2024/04/12 08:19:55;;;;;;;14.73;4.05;;;16.20;74.90;;;;;;4508848;26;19994;-76
2024/04/12 08:21:56;;;;;;;9.45;4.00;;;16.30;75.00;;;;;;4507072;26;20003;-77
2024/04/12 08:23:57;;;;;;;11.50;4.30;;;16.40;74.70;;;;;;4504367;26;19998;-76
2024/04/12 08:26:09;;;;;;;12.30;4.57;;;16.50;74.40;;;;;;4487751;26;19995;-77
2024/04/12 08:28:14;;;;;;;40.45;29.02;;;16.60;74.00;;;;;;4508478;26;20043;-76
2024/04/12 08:30:19;;;;;;;24.50;16.83;;;16.70;74.10;;;;;;4508320;26;19995;-76
2024/04/12 08:32:27;;;;;;;7.43;5.07;;;16.70;74.20;;;;;;4506385;26;20018;-75
2024/04/12 08:34:34;;;;;;;4.72;2.70;;;16.90;74.30;;;;;;4508121;26;20006;-74
2024/04/12 08:36:35;;;;;;;6.72;3.53;;;16.80;72.40;;;;;;4507951;26;20010;-78
2024/04/12 08:38:46;;;;;;;4.32;3.30;;;16.80;73.00;;;;;;4508629;26;20436;-77
2024/04/12 08:40:48;;;;;;;6.32;3.10;;;16.90;73.30;;;;;;4505671;26;19994;-76
2024/04/12 08:42:49;;;;;;;6.47;3.00;;;17.00;73.60;;;;;;4508276;26;20435;-77
2024/04/12 08:44:51;;;;;;;5.40;2.58;;;17.00;73.30;;;;;;4507826;26;19999;-74
2024/04/12 08:46:53;;;;;;;21.48;16.27;;;17.00;73.00;;;;;;4507668;26;20497;-75
2024/04/12 08:48:55;;;;;;;;;;;17.20;73.40;;;;;;4507583;26;19995;-76
2024/04/12 08:51:04;;;;;;;6.95;4.07;;;17.40;73.80;;;;;;4507244;26;19997;-74
2024/04/12 08:53:15;;;;;;;4.45;2.47;;;17.50;73.80;;;;;;4506708;26;20071;-78
2024/04/12 08:55:20;;;;;;;7.20;2.75;;;17.50;73.20;;;;;;4508589;26;19999;-77
2024/04/12 08:57:24;;;;;;;8.35;2.35;;;17.70;73.00;;;;;;4506728;26;19999;-78
2024/04/12 08:59:30;;;;;;;3.20;2.25;;;17.80;73.20;;;;;;4507607;26;19999;-76
2024/04/12 09:01:31;;;;;;;3.65;2.00;;;17.90;72.90;;;;;;4508423;26;20017;-77
2024/04/12 09:03:40;;;;;;;4.47;2.33;;;17.90;72.30;;;;;;4508573;26;20361;-76
2024/04/12 09:05:42;;;;;;;2.72;2.17;;;17.90;71.60;;;;;;4506400;26;19994;-77
2024/04/12 09:07:44;;;;;;;1.02;1.00;;;17.90;71.60;;;;;;4508481;26;19995;-78
2024/04/12 09:09:52;;;;;;;2.60;1.77;;;18.00;71.90;;;;;;4507810;26;20365;-77
2024/04/12 09:11:54;;;;;;;1.50;1.30;;;18.00;71.40;;;;;;4508543;26;20398;-75
2024/04/12 09:13:55;;;;;;;1.70;1.60;;;18.00;71.40;;;;;;4508610;26;20010;-77
2024/04/12 09:15:58;;;;;;;2.25;1.38;;;18.00;70.20;;;;;;4506480;26;20009;-77
2024/04/12 09:18:00;;;;;;;3.58;1.50;;;17.80;70.00;;;;;;4508099;26;20500;-77
2024/04/12 09:20:03;;;;;;;2.15;1.95;;;17.70;69.80;;;;;;4507757;26;20013;-73
2024/04/12 09:22:09;;;;;;;1.48;1.30;;;17.80;70.70;;;;;;4508293;26;20032;-77
2024/04/12 09:24:15;;;;;;;4.53;1.33;;;17.90;71.10;;;;;;4506303;26;19995;-77
2024/04/12 09:26:24;;;;;;;2.88;1.80;;;18.00;71.10;;;;;;4506709;26;20010;-77
2024/04/12 09:28:27;;;;;;;3.28;1.35;;;18.10;70.50;;;;;;4508393;26;20007;-77
2024/04/12 09:32:53;;;;;;;2.38;1.20;;;18.20;69.90;;;;;;4508123;26;20013;-77
2024/04/12 09:34:58;;;;;;;2.88;1.40;;;18.30;70.50;;;;;;4506152;26;20014;-77
2024/04/12 09:37:28;;;;;;;2.13;1.52;;;18.40;70.40;;;;;;4508212;26;20007;-77
2024/04/12 09:39:41;;;;;;;3.65;1.92;;;18.40;69.50;;;;;;4507300;26;20003;-78
2024/04/12 09:41:53;;;;;;;4.10;1.42;;;18.40;69.90;;;;;;4508168;26;20014;-77
2024/04/12 09:44:03;;;;;;;1.67;1.58;;;18.50;70.00;;;;;;4506402;26;20034;-74
2024/04/12 09:46:08;;;;;;;3.67;2.03;;;18.50;70.00;;;;;;4505679;26;20071;-76
2024/04/12 10:37:51;;;;;;;4.97;2.10;;;20.00;67.40;;;;;;4510323;26;20499;-77
2024/04/12 10:39:51;;;;;;;3.85;2.10;;;20.10;67.40;;;;;;4510107;26;20501;-76
2024/04/12 10:41:53;;;;;;;5.05;2.50;;;20.40;67.60;;;;;;4508568;26;20011;-76
2024/04/12 10:43:55;;;;;;;5.05;2.60;;;20.40;66.10;;;;;;4508588;26;19998;-76
2024/04/12 10:45:58;;;;;;;2.50;2.07;;;20.30;65.40;;;;;;4510390;26;20031;-76
2024/04/12 10:47:59;;;;;;;3.53;3.17;;;20.50;66.70;;;;;;4508491;26;20060;-77
2024/04/12 10:50:02;;;;;;;5.43;2.75;;;20.60;66.70;;;;;;4509693;26;20478;-77
2024/04/12 10:52:03;;;;;;;4.38;2.72;;;20.70;66.00;;;;;;4510214;26;20018;-77
2024/04/12 10:54:05;;;;;;;3.90;2.55;;;20.70;66.00;;;;;;4510176;26;20448;-76
2024/04/12 10:56:18;;;;;;;5.20;2.50;;;20.80;66.00;;;;;;4510280;26;20427;-77
2024/04/12 10:58:19;;;;;;;4.80;3.10;;;21.00;66.20;;;;;;4510060;26;19998;-74
2024/04/12 11:00:28;;;;;;;4.03;2.20;;;21.20;66.40;;;;;;4508065;26;20558;-75
2024/04/12 11:02:29;;;;;;;2.22;1.80;;;21.10;64.30;;;;;;4510225;26;20336;-76
2024/04/12 11:05:05;;;;;;;3.17;1.67;;;21.20;65.40;;;;;;4508306;26;20445;-77
2024/04/12 11:06:52;;;;;;;5.90;2.38;;;21.20;64.70;;;;;;4510274;26;20002;-78
2024/04/12 11:08:53;;;;;;;2.90;1.88;;;21.30;63.70;;;;;;4510125;26;20003;-78
2024/04/12 11:11:15;;;;;;;2.20;2.00;;;21.30;63.70;;;;;;4509581;26;19994;-78
2024/04/12 11:13:28;;;;;;;3.15;1.95;;;21.20;63.50;;;;;;4508629;26;19999;-75
2024/04/12 11:31:40;;;;;;;3.10;2.42;;;21.40;62.40;;;;;;4509349;26;20021;-77
2024/04/12 11:33:52;;;;;;;3.17;2.85;;;21.40;62.10;;;;;;4509931;26;20021;-73
2024/04/12 11:35:53;;;;;;;2.38;2.00;;;21.50;62.80;;;;;;4484701;26;20080;-78
2024/04/12 11:37:58;;;;;;;0.88;0.88;;;21.70;62.80;;;;;;4509872;26;19999;-75
2024/04/12 11:40:03;;;;;;;1.60;0.98;;;21.80;62.40;;;;;;4509452;26;19999;-78
2024/04/12 11:42:06;;;;;;;1.48;1.02;;;21.80;59.80;;;;;;4510062;26;20728;-76
2024/04/12 11:44:08;;;;;;;2.25;1.38;;;21.70;60.60;;;;;;4509758;26;20782;-77
2024/04/12 11:46:10;;;;;;;2.55;0.73;;;21.70;59.80;;;;;;4507753;26;20084;-77
2024/04/12 11:48:14;;;;;;;3.70;0.90;;;21.70;61.20;;;;;;4509777;26;20406;-73
2024/04/12 11:50:15;;;;;;;1.60;1.10;;;21.90;60.60;;;;;;4507416;26;19995;-80